sensor_id;sensor_type;location;lat;lon;timestamp;temperature;humidity
4245;DHT22;2136;48.502;9.194;2022-08-02T00:00:53;20.30;99.90
4245;DHT22;2136;48.502;9.194;2022-08-02T00:03:19;20.20;99.90
4245;DHT22;2136;48.502;9.194;2022-08-02T00:05:46;20.20;99.90
4245;DHT22;2136;48.502;9.194;2022-08-02T00:08:14;20.20;99.90
4245;DHT22;2136;48.502;9.194;2022-08-02T00:10:41;20.20;99.90
4245;DHT22;2136;48.502;9.194;2022-08-02T00:13:08;20.10;99.90
4245;DHT22;2136;48.502;9.194;2022-08-02T00:15:35;20.10;99.90
4245;DHT22;2136;48.502;9.194;2022-08-02T00:18:02;20.10;99.90
4245;DHT22;2136;48.502;9.194;2022-08-02T00:20:29;20.10;99.90
4245;DHT22;2136;48.502;9.194;2022-08-02T00:22:56;20.10;99.90
4245;DHT22;2136;48.502;9.194;2022-08-02T00:25:24;19.90;99.90
4245;DHT22;2136;48.502;9.194;2022-08-02T00:27:51;20.00;99.90
4245;DHT22;2136;48.502;9.194;2022-08-02T00:30:18;20.00;99.90
4245;DHT22;2136;48.502;9.194;2022-08-02T00:32:45;20.00;99.90
4245;DHT22;2136;48.502;9.194;2022-08-02T00:35:11;20.00;99.90
4245;DHT22;2136;48.502;9.194;2022-08-02T00:37:39;20.00;99.90
4245;DHT22;2136;48.502;9.194;2022-08-02T00:40:07;20.10;99.90
4245;DHT22;2136;48.502;9.194;2022-08-02T00:42:35;20.00;99.90
4245;DHT22;2136;48.502;9.194;2022-08-02T00:45:03;20.00;99.90
4245;DHT22;2136;48.502;9.194;2022-08-02T00:47:30;20.00;99.90
4245;DHT22;2136;48.502;9.194;2022-08-02T00:49:57;20.10;99.90
4245;DHT22;2136;48.502;9.194;2022-08-02T00:52:23;20.10;99.90
4245;DHT22;2136;48.502;9.194;2022-08-02T00:54:50;20.10;99.90
4245;DHT22;2136;48.502;9.194;2022-08-02T00:57:17;20.10;99.90
4245;DHT22;2136;48.502;9.194;2022-08-02T00:59:45;20.10;99.90
4245;DHT22;2136;48.502;9.194;2022-08-02T01:02:13;20.10;99.90
4245;DHT22;2136;48.502;9.194;2022-08-02T01:04:40;20.10;99.90
4245;DHT22;2136;48.502;9.194;2022-08-02T01:07:07;20.10;99.90
4245;DHT22;2136;48.502;9.194;2022-08-02T01:09:33;20.10;99.90
4245;DHT22;2136;48.502;9.194;2022-08-02T01:12:00;20.00;99.90
4245;DHT22;2136;48.502;9.194;2022-08-02T01:14:27;20.00;99.90
4245;DHT22;2136;48.502;9.194;2022-08-02T01:17:01;19.90;99.90
4245;DHT22;2136;48.502;9.194;2022-08-02T01:19:33;19.90;99.90
4245;DHT22;2136;48.502;9.194;2022-08-02T01:22:30;19.80;99.90
4245;DHT22;2136;48.502;9.194;2022-08-02T01:25:18;19.80;99.90
4245;DHT22;2136;48.502;9.194;2022-08-02T01:30:46;19.70;99.90
4245;DHT22;2136;48.502;9.194;2022-08-02T01:33:17;19.70;99.90
4245;DHT22;2136;48.502;9.194;2022-08-02T01:35:51;19.70;99.90
4245;DHT22;2136;48.502;9.194;2022-08-02T01:38:21;19.60;99.90
4245;DHT22;2136;48.502;9.194;2022-08-02T01:40:50;19.60;99.90
4245;DHT22;2136;48.502;9.194;2022-08-02T01:43:20;19.60;99.90
4245;DHT22;2136;48.502;9.194;2022-08-02T01:45:50;19.60;99.90
4245;DHT22;2136;48.502;9.194;2022-08-02T01:48:18;19.50;99.90
4245;DHT22;2136;48.502;9.194;2022-08-02T01:50:46;19.50;99.90
4245;DHT22;2136;48.502;9.194;2022-08-02T01:53:18;19.50;99.90
4245;DHT22;2136;48.502;9.194;2022-08-02T01:55:49;19.40;99.90
4245;DHT22;2136;48.502;9.194;2022-08-02T01:58:17;19.40;99.90
4245;DHT22;2136;48.502;9.194;2022-08-02T02:00:46;19.30;99.90
4245;DHT22;2136;48.502;9.194;2022-08-02T02:03:19;19.30;99.90
4245;DHT22;2136;48.502;9.194;2022-08-02T02:05:46;19.20;99.90
4245;DHT22;2136;48.502;9.194;2022-08-02T02:08:15;19.20;99.90
4245;DHT22;2136;48.502;9.194;2022-08-02T02:10:45;19.10;99.90
4245;DHT22;2136;48.502;9.194;2022-08-02T02:13:15;19.10;99.90
4245;DHT22;2136;48.502;9.194;2022-08-02T02:15:44;19.00;99.90
4245;DHT22;2136;48.502;9.194;2022-08-02T02:18:16;19.00;99.90
4245;DHT22;2136;48.502;9.194;2022-08-02T02:20:44;19.00;99.90
4245;DHT22;2136;48.502;9.194;2022-08-02T02:23:12;18.90;99.90
4245;DHT22;2136;48.502;9.194;2022-08-02T02:25:40;18.90;99.90
4245;DHT22;2136;48.502;9.194;2022-08-02T02:28:11;18.90;99.90
4245;DHT22;2136;48.502;9.194;2022-08-02T02:30:40;18.90;99.90
4245;DHT22;2136;48.502;9.194;2022-08-02T02:33:09;18.90;99.90
4245;DHT22;2136;48.502;9.194;2022-08-02T02:35:39;18.90;99.90
4245;DHT22;2136;48.502;9.194;2022-08-02T02:38:11;18.90;99.90
4245;DHT22;2136;48.502;9.194;2022-08-02T02:40:39;18.80;99.90
4245;DHT22;2136;48.502;9.194;2022-08-02T02:43:07;18.80;99.90
4245;DHT22;2136;48.502;9.194;2022-08-02T02:45:37;18.80;99.90
4245;DHT22;2136;48.502;9.194;2022-08-02T02:48:05;18.80;99.90
4245;DHT22;2136;48.502;9.194;2022-08-02T02:50:33;18.80;99.90
4245;DHT22;2136;48.502;9.194;2022-08-02T02:53:02;18.80;99.90
4245;DHT22;2136;48.502;9.194;2022-08-02T02:55:30;18.80;99.90
4245;DHT22;2136;48.502;9.194;2022-08-02T02:57:57;18.80;99.90
4245;DHT22;2136;48.502;9.194;2022-08-02T03:00:25;18.80;99.90
4245;DHT22;2136;48.502;9.194;2022-08-02T03:03:06;18.80;99.90
4245;DHT22;2136;48.502;9.194;2022-08-02T03:05:34;18.80;99.90
4245;DHT22;2136;48.502;9.194;2022-08-02T03:08:03;18.90;99.90
4245;DHT22;2136;48.502;9.194;2022-08-02T03:10:30;18.90;99.90
4245;DHT22;2136;48.502;9.194;2022-08-02T03:12:58;18.90;99.90
4245;DHT22;2136;48.502;9.194;2022-08-02T03:15:26;19.00;99.90
4245;DHT22;2136;48.502;9.194;2022-08-02T03:17:54;18.90;99.90
4245;DHT22;2136;48.502;9.194;2022-08-02T03:20:21;19.00;99.90
4245;DHT22;2136;48.502;9.194;2022-08-02T03:22:48;18.90;99.90
4245;DHT22;2136;48.502;9.194;2022-08-02T03:25:16;18.90;99.90
4245;DHT22;2136;48.502;9.194;2022-08-02T03:27:43;18.90;99.90
4245;DHT22;2136;48.502;9.194;2022-08-02T03:30:12;18.90;99.90
4245;DHT22;2136;48.502;9.194;2022-08-02T03:32:42;18.80;99.90
4245;DHT22;2136;48.502;9.194;2022-08-02T03:35:11;18.90;99.90
4245;DHT22;2136;48.502;9.194;2022-08-02T03:37:39;18.80;99.90
4245;DHT22;2136;48.502;9.194;2022-08-02T03:40:08;18.80;99.90
4245;DHT22;2136;48.502;9.194;2022-08-02T03:42:37;18.80;99.90
4245;DHT22;2136;48.502;9.194;2022-08-02T03:45:07;18.80;99.90
4245;DHT22;2136;48.502;9.194;2022-08-02T03:47:35;18.80;99.90
4245;DHT22;2136;48.502;9.194;2022-08-02T03:50:03;18.70;99.90
4245;DHT22;2136;48.502;9.194;2022-08-02T03:52:31;18.70;99.90
4245;DHT22;2136;48.502;9.194;2022-08-02T03:54:59;18.70;99.90
4245;DHT22;2136;48.502;9.194;2022-08-02T03:57:26;18.70;99.90
4245;DHT22;2136;48.502;9.194;2022-08-02T03:59:54;18.70;99.90
4245;DHT22;2136;48.502;9.194;2022-08-02T04:02:21;18.70;99.90
4245;DHT22;2136;48.502;9.194;2022-08-02T04:04:48;18.70;99.90
4245;DHT22;2136;48.502;9.194;2022-08-02T04:07:15;18.80;99.90
4245;DHT22;2136;48.502;9.194;2022-08-02T04:09:41;18.80;99.90
4245;DHT22;2136;48.502;9.194;2022-08-02T04:12:08;18.80;99.90
4245;DHT22;2136;48.502;9.194;2022-08-02T04:14:35;18.80;99.90
4245;DHT22;2136;48.502;9.194;2022-08-02T04:17:06;18.80;99.90
4245;DHT22;2136;48.502;9.194;2022-08-02T04:19:37;18.80;99.90
4245;DHT22;2136;48.502;9.194;2022-08-02T04:22:06;18.80;99.90
4245;DHT22;2136;48.502;9.194;2022-08-02T04:24:40;18.70;99.90
4245;DHT22;2136;48.502;9.194;2022-08-02T04:27:09;18.70;99.90
4245;DHT22;2136;48.502;9.194;2022-08-02T04:29:37;18.70;99.90
4245;DHT22;2136;48.502;9.194;2022-08-02T04:32:06;18.70;99.90
4245;DHT22;2136;48.502;9.194;2022-08-02T04:34:33;18.70;99.90
4245;DHT22;2136;48.502;9.194;2022-08-02T04:37:00;18.70;99.90
4245;DHT22;2136;48.502;9.194;2022-08-02T04:39:27;18.70;99.90
4245;DHT22;2136;48.502;9.194;2022-08-02T04:41:54;18.70;99.90
4245;DHT22;2136;48.502;9.194;2022-08-02T04:44:21;18.70;99.90
4245;DHT22;2136;48.502;9.194;2022-08-02T04:46:48;18.70;99.90
4245;DHT22;2136;48.502;9.194;2022-08-02T04:49:16;18.70;99.90
4245;DHT22;2136;48.502;9.194;2022-08-02T04:51:43;18.70;99.90
4245;DHT22;2136;48.502;9.194;2022-08-02T04:54:10;18.70;99.90
4245;DHT22;2136;48.502;9.194;2022-08-02T04:56:38;18.70;99.90
4245;DHT22;2136;48.502;9.194;2022-08-02T04:59:05;18.70;99.90
4245;DHT22;2136;48.502;9.194;2022-08-02T05:01:32;18.70;99.90
4245;DHT22;2136;48.502;9.194;2022-08-02T05:04:00;18.80;99.90
4245;DHT22;2136;48.502;9.194;2022-08-02T05:06:28;18.80;99.90
4245;DHT22;2136;48.502;9.194;2022-08-02T05:08:55;18.80;99.90
4245;DHT22;2136;48.502;9.194;2022-08-02T05:11:22;18.90;99.90
4245;DHT22;2136;48.502;9.194;2022-08-02T05:13:49;18.90;99.90
4245;DHT22;2136;48.502;9.194;2022-08-02T05:16:16;18.90;99.90
4245;DHT22;2136;48.502;9.194;2022-08-02T05:18:43;18.90;99.90
4245;DHT22;2136;48.502;9.194;2022-08-02T05:21:10;19.00;99.90
4245;DHT22;2136;48.502;9.194;2022-08-02T05:23:38;19.00;99.90
4245;DHT22;2136;48.502;9.194;2022-08-02T05:26:05;19.10;99.90
4245;DHT22;2136;48.502;9.194;2022-08-02T05:28:32;19.20;99.90
4245;DHT22;2136;48.502;9.194;2022-08-02T05:30:59;19.20;99.90
4245;DHT22;2136;48.502;9.194;2022-08-02T05:33:26;19.30;99.90
4245;DHT22;2136;48.502;9.194;2022-08-02T05:35:53;19.40;99.90
4245;DHT22;2136;48.502;9.194;2022-08-02T05:38:20;19.50;99.90
4245;DHT22;2136;48.502;9.194;2022-08-02T05:40:49;19.60;99.90
4245;DHT22;2136;48.502;9.194;2022-08-02T05:43:15;19.60;99.90
4245;DHT22;2136;48.502;9.194;2022-08-02T05:45:42;19.70;99.90
4245;DHT22;2136;48.502;9.194;2022-08-02T05:48:09;19.80;99.90
4245;DHT22;2136;48.502;9.194;2022-08-02T05:50:38;19.90;99.90
4245;DHT22;2136;48.502;9.194;2022-08-02T05:53:13;20.00;99.90
4245;DHT22;2136;48.502;9.194;2022-08-02T05:55:50;20.00;99.90
4245;DHT22;2136;48.502;9.194;2022-08-02T05:58:27;20.10;99.90
4245;DHT22;2136;48.502;9.194;2022-08-02T06:00:56;20.20;99.90
4245;DHT22;2136;48.502;9.194;2022-08-02T06:03:31;20.30;99.90
4245;DHT22;2136;48.502;9.194;2022-08-02T06:06:04;20.30;99.90
4245;DHT22;2136;48.502;9.194;2022-08-02T06:08:37;20.40;99.90
4245;DHT22;2136;48.502;9.194;2022-08-02T06:11:07;20.40;99.90
4245;DHT22;2136;48.502;9.194;2022-08-02T06:13:35;20.40;99.90
4245;DHT22;2136;48.502;9.194;2022-08-02T06:16:03;20.40;99.90
4245;DHT22;2136;48.502;9.194;2022-08-02T06:18:30;20.40;99.90
4245;DHT22;2136;48.502;9.194;2022-08-02T06:21:01;20.30;99.90
4245;DHT22;2136;48.502;9.194;2022-08-02T06:23:29;20.30;99.90
4245;DHT22;2136;48.502;9.194;2022-08-02T06:25:56;20.30;99.90
4245;DHT22;2136;48.502;9.194;2022-08-02T06:28:25;20.30;99.90
4245;DHT22;2136;48.502;9.194;2022-08-02T06:30:52;20.30;99.90
4245;DHT22;2136;48.502;9.194;2022-08-02T06:33:20;20.30;99.90
4245;DHT22;2136;48.502;9.194;2022-08-02T06:35:54;20.30;99.90
4245;DHT22;2136;48.502;9.194;2022-08-02T06:38:24;20.40;99.90
4245;DHT22;2136;48.502;9.194;2022-08-02T06:40:55;20.40;99.90
4245;DHT22;2136;48.502;9.194;2022-08-02T06:43:32;20.40;99.90
4245;DHT22;2136;48.502;9.194;2022-08-02T06:46:00;20.50;99.90
4245;DHT22;2136;48.502;9.194;2022-08-02T06:48:28;20.50;99.90
4245;DHT22;2136;48.502;9.194;2022-08-02T06:50:55;20.60;99.90
4245;DHT22;2136;48.502;9.194;2022-08-02T06:53:22;20.60;99.90
4245;DHT22;2136;48.502;9.194;2022-08-02T06:55:49;20.60;99.90
4245;DHT22;2136;48.502;9.194;2022-08-02T06:58:16;20.70;99.90
4245;DHT22;2136;48.502;9.194;2022-08-02T07:00:44;20.70;99.90
4245;DHT22;2136;48.502;9.194;2022-08-02T07:03:12;20.70;99.90
4245;DHT22;2136;48.502;9.194;2022-08-02T07:05:39;20.70;99.90
4245;DHT22;2136;48.502;9.194;2022-08-02T07:08:06;20.70;99.90
4245;DHT22;2136;48.502;9.194;2022-08-02T07:10:33;20.70;99.90
4245;DHT22;2136;48.502;9.194;2022-08-02T07:13:00;20.80;99.90
4245;DHT22;2136;48.502;9.194;2022-08-02T07:15:27;20.80;99.90
4245;DHT22;2136;48.502;9.194;2022-08-02T07:17:55;20.80;99.90
4245;DHT22;2136;48.502;9.194;2022-08-02T07:20:22;20.90;99.90
4245;DHT22;2136;48.502;9.194;2022-08-02T07:22:50;20.90;99.90
4245;DHT22;2136;48.502;9.194;2022-08-02T07:25:17;21.00;99.90
4245;DHT22;2136;48.502;9.194;2022-08-02T07:27:47;21.10;99.90
4245;DHT22;2136;48.502;9.194;2022-08-02T07:30:16;21.10;99.90
4245;DHT22;2136;48.502;9.194;2022-08-02T07:32:43;21.20;99.90
4245;DHT22;2136;48.502;9.194;2022-08-02T07:35:11;21.30;99.90
4245;DHT22;2136;48.502;9.194;2022-08-02T07:37:38;21.30;99.90
4245;DHT22;2136;48.502;9.194;2022-08-02T07:40:08;21.40;99.90
4245;DHT22;2136;48.502;9.194;2022-08-02T07:42:35;21.40;99.90
4245;DHT22;2136;48.502;9.194;2022-08-02T07:45:03;21.50;99.90
4245;DHT22;2136;48.502;9.194;2022-08-02T07:47:30;21.60;99.90
4245;DHT22;2136;48.502;9.194;2022-08-02T07:49:57;21.80;99.90
4245;DHT22;2136;48.502;9.194;2022-08-02T07:52:25;21.90;99.90
4245;DHT22;2136;48.502;9.194;2022-08-02T07:54:52;22.00;99.90
4245;DHT22;2136;48.502;9.194;2022-08-02T07:57:19;22.20;99.90
4245;DHT22;2136;48.502;9.194;2022-08-02T07:59:46;22.40;99.90
4245;DHT22;2136;48.502;9.194;2022-08-02T08:02:13;22.60;99.90
4245;DHT22;2136;48.502;9.194;2022-08-02T08:04:40;22.70;99.90
4245;DHT22;2136;48.502;9.194;2022-08-02T08:07:07;22.90;99.90
4245;DHT22;2136;48.502;9.194;2022-08-02T08:09:37;23.00;99.90
4245;DHT22;2136;48.502;9.194;2022-08-02T08:12:06;23.20;99.90
4245;DHT22;2136;48.502;9.194;2022-08-02T08:14:33;23.20;99.90
4245;DHT22;2136;48.502;9.194;2022-08-02T08:17:00;23.40;99.90
4245;DHT22;2136;48.502;9.194;2022-08-02T08:19:28;23.50;97.40
4245;DHT22;2136;48.502;9.194;2022-08-02T08:21:54;23.50;95.30
4245;DHT22;2136;48.502;9.194;2022-08-02T08:24:24;23.60;95.00
4245;DHT22;2136;48.502;9.194;2022-08-02T08:26:52;23.60;94.40
4245;DHT22;2136;48.502;9.194;2022-08-02T08:29:19;23.60;93.80
4245;DHT22;2136;48.502;9.194;2022-08-02T08:31:46;23.60;92.80
4245;DHT22;2136;48.502;9.194;2022-08-02T08:34:13;23.60;92.70
4245;DHT22;2136;48.502;9.194;2022-08-02T08:36:41;23.60;92.50
4245;DHT22;2136;48.502;9.194;2022-08-02T08:39:08;23.60;92.50
4245;DHT22;2136;48.502;9.194;2022-08-02T08:41:35;23.70;91.10
4245;DHT22;2136;48.502;9.194;2022-08-02T08:44:04;23.90;91.90
4245;DHT22;2136;48.502;9.194;2022-08-02T08:46:36;24.00;92.40
4245;DHT22;2136;48.502;9.194;2022-08-02T08:49:08;24.10;92.90
4245;DHT22;2136;48.502;9.194;2022-08-02T08:51:37;24.20;92.70
4245;DHT22;2136;48.502;9.194;2022-08-02T08:54:09;24.40;92.40
4245;DHT22;2136;48.502;9.194;2022-08-02T08:56:38;24.60;91.90
4245;DHT22;2136;48.502;9.194;2022-08-02T08:59:08;24.70;91.00
4245;DHT22;2136;48.502;9.194;2022-08-02T09:01:35;24.80;90.20
4245;DHT22;2136;48.502;9.194;2022-08-02T09:04:02;25.00;90.60
4245;DHT22;2136;48.502;9.194;2022-08-02T09:06:29;25.10;90.70
4245;DHT22;2136;48.502;9.194;2022-08-02T09:08:56;25.20;90.10
4245;DHT22;2136;48.502;9.194;2022-08-02T09:11:24;25.40;88.60
4245;DHT22;2136;48.502;9.194;2022-08-02T09:13:53;25.60;86.00
4245;DHT22;2136;48.502;9.194;2022-08-02T09:16:29;25.70;83.70
4245;DHT22;2136;48.502;9.194;2022-08-02T09:18:58;25.90;83.00
4245;DHT22;2136;48.502;9.194;2022-08-02T09:21:34;26.00;82.20
4245;DHT22;2136;48.502;9.194;2022-08-02T09:24:01;26.10;82.80
4245;DHT22;2136;48.502;9.194;2022-08-02T09:26:28;26.30;80.10
4245;DHT22;2136;48.502;9.194;2022-08-02T09:28:59;26.40;78.80
4245;DHT22;2136;48.502;9.194;2022-08-02T09:31:28;26.50;73.70
4245;DHT22;2136;48.502;9.194;2022-08-02T09:33:57;26.70;73.80
4245;DHT22;2136;48.502;9.194;2022-08-02T09:36:26;26.90;72.70
4245;DHT22;2136;48.502;9.194;2022-08-02T09:38:55;27.20;70.10
4245;DHT22;2136;48.502;9.194;2022-08-02T09:41:24;27.80;67.50
4245;DHT22;2136;48.502;9.194;2022-08-02T09:43:52;28.40;63.60
4245;DHT22;2136;48.502;9.194;2022-08-02T09:46:20;29.00;61.20
4245;DHT22;2136;48.502;9.194;2022-08-02T09:48:52;29.60;60.20
4245;DHT22;2136;48.502;9.194;2022-08-02T09:51:21;30.30;57.30
4245;DHT22;2136;48.502;9.194;2022-08-02T09:53:51;31.30;53.80
4245;DHT22;2136;48.502;9.194;2022-08-02T09:56:21;32.20;52.90
4245;DHT22;2136;48.502;9.194;2022-08-02T09:58:49;33.50;52.80
4245;DHT22;2136;48.502;9.194;2022-08-02T10:01:18;35.20;49.60
4245;DHT22;2136;48.502;9.194;2022-08-02T10:03:57;36.80;46.10
4245;DHT22;2136;48.502;9.194;2022-08-02T10:06:25;38.30;42.20
4245;DHT22;2136;48.502;9.194;2022-08-02T10:08:53;39.60;40.40
4245;DHT22;2136;48.502;9.194;2022-08-02T10:11:20;41.10;38.10
4245;DHT22;2136;48.502;9.194;2022-08-02T10:13:49;42.40;34.90
4245;DHT22;2136;48.502;9.194;2022-08-02T10:16:17;44.00;33.50
4245;DHT22;2136;48.502;9.194;2022-08-02T10:18:47;45.40;31.30
4245;DHT22;2136;48.502;9.194;2022-08-02T10:21:19;46.80;29.70
4245;DHT22;2136;48.502;9.194;2022-08-02T10:23:48;47.90;28.00
4245;DHT22;2136;48.502;9.194;2022-08-02T10:26:18;49.00;28.20
4245;DHT22;2136;48.502;9.194;2022-08-02T10:28:46;50.20;27.90
4245;DHT22;2136;48.502;9.194;2022-08-02T10:31:17;51.50;26.90
4245;DHT22;2136;48.502;9.194;2022-08-02T10:33:45;52.60;26.20
4245;DHT22;2136;48.502;9.194;2022-08-02T10:36:15;53.70;25.40
4245;DHT22;2136;48.502;9.194;2022-08-02T10:38:43;54.50;25.00
4245;DHT22;2136;48.502;9.194;2022-08-02T10:41:11;55.20;24.30
4245;DHT22;2136;48.502;9.194;2022-08-02T10:43:43;55.70;24.00
4245;DHT22;2136;48.502;9.194;2022-08-02T10:46:28;56.30;23.30
4245;DHT22;2136;48.502;9.194;2022-08-02T10:49:07;56.60;22.80
4245;DHT22;2136;48.502;9.194;2022-08-02T10:52:07;56.80;22.20
4245;DHT22;2136;48.502;9.194;2022-08-02T10:54:36;57.10;22.40
4245;DHT22;2136;48.502;9.194;2022-08-02T10:57:15;57.30;22.20
4245;DHT22;2136;48.502;9.194;2022-08-02T10:59:43;57.50;21.80
4245;DHT22;2136;48.502;9.194;2022-08-02T11:02:10;57.90;21.40
4245;DHT22;2136;48.502;9.194;2022-08-02T11:05:00;58.40;21.30
4245;DHT22;2136;48.502;9.194;2022-08-02T11:07:35;58.80;20.60
4245;DHT22;2136;48.502;9.194;2022-08-02T11:10:33;58.30;20.50
4245;DHT22;2136;48.502;9.194;2022-08-02T11:13:09;57.60;21.40
4245;DHT22;2136;48.502;9.194;2022-08-02T11:15:53;57.60;21.00
4245;DHT22;2136;48.502;9.194;2022-08-02T11:18:22;58.10;20.80
4245;DHT22;2136;48.502;9.194;2022-08-02T11:21:21;58.70;19.90
4245;DHT22;2136;48.502;9.194;2022-08-02T11:23:50;59.10;19.50
4245;DHT22;2136;48.502;9.194;2022-08-02T11:26:42;59.20;20.00
4245;DHT22;2136;48.502;9.194;2022-08-02T11:29:10;59.10;20.00
4245;DHT22;2136;48.502;9.194;2022-08-02T11:31:41;59.20;20.30
4245;DHT22;2136;48.502;9.194;2022-08-02T11:34:08;59.60;19.70
4245;DHT22;2136;48.502;9.194;2022-08-02T11:36:43;59.80;19.80
4245;DHT22;2136;48.502;9.194;2022-08-02T11:39:13;60.00;19.30
4245;DHT22;2136;48.502;9.194;2022-08-02T11:41:40;59.80;18.90
4245;DHT22;2136;48.502;9.194;2022-08-02T11:44:07;60.00;19.60
4245;DHT22;2136;48.502;9.194;2022-08-02T11:46:34;60.20;19.10
4245;DHT22;2136;48.502;9.194;2022-08-02T11:49:13;60.00;19.40
4245;DHT22;2136;48.502;9.194;2022-08-02T11:51:50;59.40;19.00
4245;DHT22;2136;48.502;9.194;2022-08-02T11:54:23;58.20;19.10
4245;DHT22;2136;48.502;9.194;2022-08-02T11:56:50;56.80;19.40
4245;DHT22;2136;48.502;9.194;2022-08-02T11:59:17;55.60;19.40
4245;DHT22;2136;48.502;9.194;2022-08-02T12:01:44;55.10;20.10
4245;DHT22;2136;48.502;9.194;2022-08-02T12:04:13;55.10;20.80
4245;DHT22;2136;48.502;9.194;2022-08-02T12:06:41;54.20;20.90
4245;DHT22;2136;48.502;9.194;2022-08-02T12:09:09;52.20;21.90
4245;DHT22;2136;48.502;9.194;2022-08-02T12:11:37;49.90;23.50
4245;DHT22;2136;48.502;9.194;2022-08-02T12:14:05;47.50;24.40
4245;DHT22;2136;48.502;9.194;2022-08-02T12:16:33;45.30;25.30
4245;DHT22;2136;48.502;9.194;2022-08-02T12:19:19;43.40;27.20
4245;DHT22;2136;48.502;9.194;2022-08-02T12:21:48;41.60;27.80
4245;DHT22;2136;48.502;9.194;2022-08-02T12:24:26;40.20;29.30
4245;DHT22;2136;48.502;9.194;2022-08-02T12:26:55;38.90;30.60
4245;DHT22;2136;48.502;9.194;2022-08-02T12:29:32;37.80;31.30
4245;DHT22;2136;48.502;9.194;2022-08-02T12:32:00;36.80;32.30
4245;DHT22;2136;48.502;9.194;2022-08-02T12:34:28;35.90;34.10
4245;DHT22;2136;48.502;9.194;2022-08-02T12:37:03;35.30;34.90
4245;DHT22;2136;48.502;9.194;2022-08-02T12:39:36;34.60;34.20
4245;DHT22;2136;48.502;9.194;2022-08-02T12:42:07;34.00;34.10
4245;DHT22;2136;48.502;9.194;2022-08-02T12:44:50;34.00;36.70
4245;DHT22;2136;48.502;9.194;2022-08-02T12:47:22;35.10;36.00
4245;DHT22;2136;48.502;9.194;2022-08-02T12:50:12;37.30;33.40
4245;DHT22;2136;48.502;9.194;2022-08-02T12:52:39;38.90;32.30
4245;DHT22;2136;48.502;9.194;2022-08-02T12:55:14;40.00;30.60
4245;DHT22;2136;48.502;9.194;2022-08-02T12:57:52;40.40;29.80
4245;DHT22;2136;48.502;9.194;2022-08-02T13:00:24;40.10;29.30
4245;DHT22;2136;48.502;9.194;2022-08-02T13:02:51;39.90;29.10
4245;DHT22;2136;48.502;9.194;2022-08-02T13:05:18;40.20;28.40
4245;DHT22;2136;48.502;9.194;2022-08-02T13:07:45;40.40;28.90
4245;DHT22;2136;48.502;9.194;2022-08-02T13:10:12;40.50;29.00
4245;DHT22;2136;48.502;9.194;2022-08-02T13:12:39;40.20;28.60
4245;DHT22;2136;48.502;9.194;2022-08-02T13:15:09;39.60;29.40
4245;DHT22;2136;48.502;9.194;2022-08-02T13:17:36;38.80;30.70
4245;DHT22;2136;48.502;9.194;2022-08-02T13:20:03;37.90;32.10
4245;DHT22;2136;48.502;9.194;2022-08-02T13:22:31;37.20;32.30
4245;DHT22;2136;48.502;9.194;2022-08-02T13:24:57;36.60;32.80
4245;DHT22;2136;48.502;9.194;2022-08-02T13:27:25;36.10;33.40
4245;DHT22;2136;48.502;9.194;2022-08-02T13:29:53;35.70;33.60
4245;DHT22;2136;48.502;9.194;2022-08-02T13:32:22;35.40;33.80
4245;DHT22;2136;48.502;9.194;2022-08-02T13:34:49;35.00;33.00
4245;DHT22;2136;48.502;9.194;2022-08-02T13:37:18;34.50;33.40
4245;DHT22;2136;48.502;9.194;2022-08-02T13:39:45;34.10;35.40
4245;DHT22;2136;48.502;9.194;2022-08-02T13:42:12;33.70;36.70
4245;DHT22;2136;48.502;9.194;2022-08-02T13:44:39;33.70;36.50
4245;DHT22;2136;48.502;9.194;2022-08-02T13:47:05;34.00;36.30
4245;DHT22;2136;48.502;9.194;2022-08-02T13:49:34;34.40;34.90
4245;DHT22;2136;48.502;9.194;2022-08-02T13:52:01;34.40;34.40
4245;DHT22;2136;48.502;9.194;2022-08-02T13:54:28;34.10;35.00
4245;DHT22;2136;48.502;9.194;2022-08-02T13:56:54;33.70;35.40
4245;DHT22;2136;48.502;9.194;2022-08-02T13:59:21;33.80;35.40
4245;DHT22;2136;48.502;9.194;2022-08-02T14:01:48;34.10;35.00
4245;DHT22;2136;48.502;9.194;2022-08-02T14:04:15;34.30;34.80
4245;DHT22;2136;48.502;9.194;2022-08-02T14:06:43;34.40;35.40
4245;DHT22;2136;48.502;9.194;2022-08-02T14:09:10;34.60;34.40
4245;DHT22;2136;48.502;9.194;2022-08-02T14:11:37;34.60;33.80
4245;DHT22;2136;48.502;9.194;2022-08-02T14:14:04;34.70;33.80
4245;DHT22;2136;48.502;9.194;2022-08-02T14:16:32;34.70;34.40
4245;DHT22;2136;48.502;9.194;2022-08-02T14:18:59;34.70;34.90
4245;DHT22;2136;48.502;9.194;2022-08-02T14:21:26;34.70;36.20
4245;DHT22;2136;48.502;9.194;2022-08-02T14:23:54;34.60;36.70
4245;DHT22;2136;48.502;9.194;2022-08-02T14:26:21;34.80;36.80
4245;DHT22;2136;48.502;9.194;2022-08-02T14:28:48;35.20;36.90
4245;DHT22;2136;48.502;9.194;2022-08-02T14:31:14;35.60;36.60
4245;DHT22;2136;48.502;9.194;2022-08-02T14:33:41;35.80;36.40
4245;DHT22;2136;48.502;9.194;2022-08-02T14:36:08;35.70;35.50
4245;DHT22;2136;48.502;9.194;2022-08-02T14:38:35;35.40;35.80
4245;DHT22;2136;48.502;9.194;2022-08-02T14:41:03;35.20;36.60
4245;DHT22;2136;48.502;9.194;2022-08-02T14:43:30;34.90;36.80
4245;DHT22;2136;48.502;9.194;2022-08-02T14:46:15;34.70;36.60
4245;DHT22;2136;48.502;9.194;2022-08-02T14:48:41;34.50;35.80
4245;DHT22;2136;48.502;9.194;2022-08-02T14:51:08;34.30;36.90
4245;DHT22;2136;48.502;9.194;2022-08-02T14:53:37;34.10;37.30
4245;DHT22;2136;48.502;9.194;2022-08-02T14:56:06;33.90;38.00
4245;DHT22;2136;48.502;9.194;2022-08-02T14:58:33;33.90;38.00
4245;DHT22;2136;48.502;9.194;2022-08-02T15:01:00;33.80;37.80
4245;DHT22;2136;48.502;9.194;2022-08-02T15:03:26;33.60;38.30
4245;DHT22;2136;48.502;9.194;2022-08-02T15:05:53;33.40;37.70
4245;DHT22;2136;48.502;9.194;2022-08-02T15:08:20;33.20;37.60
4245;DHT22;2136;48.502;9.194;2022-08-02T15:10:47;33.00;37.90
4245;DHT22;2136;48.502;9.194;2022-08-02T15:13:16;32.80;37.60
4245;DHT22;2136;48.502;9.194;2022-08-02T15:15:42;32.60;38.00
4245;DHT22;2136;48.502;9.194;2022-08-02T15:18:11;32.40;38.50
4245;DHT22;2136;48.502;9.194;2022-08-02T15:20:39;32.20;40.30
4245;DHT22;2136;48.502;9.194;2022-08-02T15:23:06;32.00;40.50
4245;DHT22;2136;48.502;9.194;2022-08-02T15:25:33;31.80;40.80
4245;DHT22;2136;48.502;9.194;2022-08-02T15:28:00;31.70;41.10
4245;DHT22;2136;48.502;9.194;2022-08-02T15:30:32;31.60;41.70
4245;DHT22;2136;48.502;9.194;2022-08-02T15:32:59;31.40;42.50
4245;DHT22;2136;48.502;9.194;2022-08-02T15:35:26;31.30;42.10
4245;DHT22;2136;48.502;9.194;2022-08-02T15:37:53;31.20;42.60
4245;DHT22;2136;48.502;9.194;2022-08-02T15:40:20;31.10;42.90
4245;DHT22;2136;48.502;9.194;2022-08-02T15:42:47;31.10;44.00
4245;DHT22;2136;48.502;9.194;2022-08-02T15:45:14;31.00;43.30
4245;DHT22;2136;48.502;9.194;2022-08-02T15:47:43;30.90;43.30
4245;DHT22;2136;48.502;9.194;2022-08-02T15:50:10;30.80;43.80
4245;DHT22;2136;48.502;9.194;2022-08-02T15:52:37;30.70;44.50
4245;DHT22;2136;48.502;9.194;2022-08-02T15:55:04;30.60;44.30
4245;DHT22;2136;48.502;9.194;2022-08-02T15:57:31;30.50;44.20
4245;DHT22;2136;48.502;9.194;2022-08-02T15:59:58;30.40;43.90
4245;DHT22;2136;48.502;9.194;2022-08-02T16:02:25;30.40;44.70
4245;DHT22;2136;48.502;9.194;2022-08-02T16:04:53;30.30;45.00
4245;DHT22;2136;48.502;9.194;2022-08-02T16:07:20;30.20;44.50
4245;DHT22;2136;48.502;9.194;2022-08-02T16:09:47;30.20;44.60
4245;DHT22;2136;48.502;9.194;2022-08-02T16:12:13;30.20;45.30
4245;DHT22;2136;48.502;9.194;2022-08-02T16:14:40;30.10;45.50
4245;DHT22;2136;48.502;9.194;2022-08-02T16:17:07;30.20;45.50